To NAV CANADA Home Page Login to a new session Search on AWWS site Feedback and Comments Disclaimer Vers la page française équivalente Tips FAQ What's new on the site To the Forecasts and Observations / NOTAM section To "File a Flight Plan" website Publications and other links Update of the User's profile FIC Telephone Numbers My Weather Data Folder Route Weather Data Regional Weather Data Local Weather Data To the Forecasts and Observations / NOTAM section
Request Generated 08/24/2016 at 04:46:18 UTC . Weather information available at that time is displayed.

METAR/TAF

ST. ANTHONY/NL    (show WxCam)

METAR CYAY 240400Z AUTO 26013G18KT 9SM CLR 15/10 A2976 RMK SLP079
DENSITY ALT 200FT=
METAR CYAY 240300Z AUTO 26015G20KT 9SM FEW095 15/11 A2973 RMK SLP068
DENSITY ALT 300FT=
METAR CYAY 240200Z AUTO 27017G22KT 9SM CLR 16/11 A2970 RMK SLP058
DENSITY ALT 400FT=

TAF CYAY 240142Z 2402/2414 26012G22KT P6SM OVC040
BECMG 2402/2404 SCT040
FM241200 23015G25KT P6SM SCT015 BKN040 TEMPO 2412/2414 BKN015
RMK FCST BASED ON AUTO OBS. NXT FCST BY 240800Z=
Your time UTC time
Weather data provided by Environment Canada and NAV CANADA